sensor_id;sensor_type;location;lat;lon;timestamp;P1;durP1;ratioP1;P2;durP2;ratioP2
21202;SDS011;10759;51.982;9.232;2022-09-14T05:27:49;5.88;;;1.50;;
21202;SDS011;10759;51.982;9.232;2022-09-14T05:30:17;4.30;;;1.83;;
21202;SDS011;10759;51.982;9.232;2022-09-14T05:32:45;3.72;;;1.83;;
21202;SDS011;10759;51.982;9.232;2022-09-14T05:35:12;4.57;;;1.52;;
21202;SDS011;10759;51.982;9.232;2022-09-14T05:37:40;5.38;;;2.10;;
21202;SDS011;10759;51.982;9.232;2022-09-14T05:40:09;9.23;;;2.22;;
21202;SDS011;10759;51.982;9.232;2022-09-14T05:42:37;3.72;;;2.00;;
21202;SDS011;10759;51.982;9.232;2022-09-14T05:45:07;3.42;;;1.90;;
21202;SDS011;10759;51.982;9.232;2022-09-14T05:47:36;4.20;;;2.03;;
21202;SDS011;10759;51.982;9.232;2022-09-14T05:50:05;7.55;;;1.85;;
21202;SDS011;10759;51.982;9.232;2022-09-14T05:52:34;3.78;;;1.92;;
21202;SDS011;10759;51.982;9.232;2022-09-14T05:55:02;2.58;;;1.65;;
21202;SDS011;10759;51.982;9.232;2022-09-14T05:57:30;6.32;;;1.95;;
21202;SDS011;10759;51.982;9.232;2022-09-14T05:59:58;3.33;;;1.45;;
21202;SDS011;10759;51.982;9.232;2022-09-14T06:02:28;6.45;;;1.60;;
21202;SDS011;10759;51.982;9.232;2022-09-14T06:04:56;7.75;;;2.00;;
21202;SDS011;10759;51.982;9.232;2022-09-14T06:07:24;3.28;;;1.30;;
21202;SDS011;10759;51.982;9.232;2022-09-14T06:09:52;4.65;;;1.73;;
21202;SDS011;10759;51.982;9.232;2022-09-14T06:12:20;4.88;;;1.60;;
21202;SDS011;10759;51.982;9.232;2022-09-14T06:14:48;5.35;;;2.10;;
21202;SDS011;10759;51.982;9.232;2022-09-14T06:17:16;5.15;;;1.67;;
21202;SDS011;10759;51.982;9.232;2022-09-14T06:19:46;6.72;;;2.25;;
21202;SDS011;10759;51.982;9.232;2022-09-14T06:22:14;8.50;;;1.92;;
21202;SDS011;10759;51.982;9.232;2022-09-14T06:24:42;9.98;;;1.75;;
21202;SDS011;10759;51.982;9.232;2022-09-14T06:27:10;2.72;;;1.38;;
21202;SDS011;10759;51.982;9.232;2022-09-14T06:29:38;4.90;;;1.55;;
21202;SDS011;10759;51.982;9.232;2022-09-14T06:32:05;6.85;;;2.60;;
21202;SDS011;10759;51.982;9.232;2022-09-14T06:34:34;5.30;;;1.83;;
21202;SDS011;10759;51.982;9.232;2022-09-14T06:37:03;7.40;;;2.25;;
21202;SDS011;10759;51.982;9.232;2022-09-14T06:39:31;5.10;;;2.97;;
21202;SDS011;10759;51.982;9.232;2022-09-14T06:41:59;3.97;;;2.60;;
21202;SDS011;10759;51.982;9.232;2022-09-14T06:44:27;3.53;;;2.40;;
21202;SDS011;10759;51.982;9.232;2022-09-14T06:46:55;6.15;;;2.67;;
21202;SDS011;10759;51.982;9.232;2022-09-14T06:49:24;4.30;;;2.63;;
21202;SDS011;10759;51.982;9.232;2022-09-14T06:51:52;7.97;;;3.03;;
21202;SDS011;10759;51.982;9.232;2022-09-14T06:54:24;4.70;;;2.55;;
21202;SDS011;10759;51.982;9.232;2022-09-14T06:56:52;6.15;;;2.35;;
21202;SDS011;10759;51.982;9.232;2022-09-14T06:59:20;5.10;;;2.60;;
21202;SDS011;10759;51.982;9.232;2022-09-14T07:01:48;3.80;;;2.40;;
21202;SDS011;10759;51.982;9.232;2022-09-14T07:04:16;4.72;;;2.50;;
21202;SDS011;10759;51.982;9.232;2022-09-14T07:06:45;9.65;;;3.40;;
21202;SDS011;10759;51.982;9.232;2022-09-14T07:09:15;10.05;;;3.58;;
21202;SDS011;10759;51.982;9.232;2022-09-14T07:11:46;5.15;;;3.10;;
21202;SDS011;10759;51.982;9.232;2022-09-14T07:14:14;4.82;;;2.88;;
21202;SDS011;10759;51.982;9.232;2022-09-14T07:16:42;3.75;;;2.25;;
21202;SDS011;10759;51.982;9.232;2022-09-14T07:19:11;4.72;;;2.40;;
21202;SDS011;10759;51.982;9.232;2022-09-14T07:24:09;5.13;;;3.05;;
21202;SDS011;10759;51.982;9.232;2022-09-14T07:26:39;6.18;;;3.30;;
21202;SDS011;10759;51.982;9.232;2022-09-14T07:29:10;5.75;;;2.90;;
21202;SDS011;10759;51.982;9.232;2022-09-14T07:31:40;5.30;;;2.67;;
21202;SDS011;10759;51.982;9.232;2022-09-14T07:34:09;5.35;;;2.63;;
21202;SDS011;10759;51.982;9.232;2022-09-14T07:36:39;5.75;;;3.10;;
21202;SDS011;10759;51.982;9.232;2022-09-14T07:39:09;5.05;;;3.05;;
21202;SDS011;10759;51.982;9.232;2022-09-14T07:41:39;5.05;;;3.10;;
21202;SDS011;10759;51.982;9.232;2022-09-14T07:44:13;4.93;;;2.88;;
21202;SDS011;10759;51.982;9.232;2022-09-14T07:46:43;9.20;;;3.53;;
21202;SDS011;10759;51.982;9.232;2022-09-14T07:49:13;8.13;;;3.15;;
21202;SDS011;10759;51.982;9.232;2022-09-14T07:51:42;9.50;;;3.28;;
21202;SDS011;10759;51.982;9.232;2022-09-14T07:54:11;5.95;;;3.05;;
21202;SDS011;10759;51.982;9.232;2022-09-14T07:56:41;5.03;;;2.58;;
21202;SDS011;10759;51.982;9.232;2022-09-14T07:59:11;9.98;;;3.13;;
21202;SDS011;10759;51.982;9.232;2022-09-14T08:02:00;4.50;;;2.65;;
21202;SDS011;10759;51.982;9.232;2022-09-14T08:04:29;7.70;;;2.83;;
21202;SDS011;10759;51.982;9.232;2022-09-14T08:06:57;7.28;;;3.00;;
21202;SDS011;10759;51.982;9.232;2022-09-14T08:09:25;6.30;;;2.70;;
21202;SDS011;10759;51.982;9.232;2022-09-14T08:11:53;5.60;;;2.22;;
21202;SDS011;10759;51.982;9.232;2022-09-14T08:14:23;8.55;;;3.40;;
21202;SDS011;10759;51.982;9.232;2022-09-14T08:16:51;6.93;;;2.53;;
21202;SDS011;10759;51.982;9.232;2022-09-14T08:19:19;8.80;;;2.63;;
21202;SDS011;10759;51.982;9.232;2022-09-14T08:21:48;8.20;;;2.92;;
21202;SDS011;10759;51.982;9.232;2022-09-14T08:24:17;5.80;;;1.73;;
21202;SDS011;10759;51.982;9.232;2022-09-14T08:29:15;8.75;;;2.55;;
21202;SDS011;10759;51.982;9.232;2022-09-14T08:31:45;7.07;;;2.22;;
21202;SDS011;10759;51.982;9.232;2022-09-14T08:36:43;11.07;;;1.85;;
21202;SDS011;10759;51.982;9.232;2022-09-14T08:39:12;4.65;;;1.80;;
21202;SDS011;10759;51.982;9.232;2022-09-14T08:41:44;4.82;;;1.67;;
21202;SDS011;10759;51.982;9.232;2022-09-14T08:44:18;6.82;;;1.63;;
21202;SDS011;10759;51.982;9.232;2022-09-14T08:46:52;3.40;;;1.58;;
21202;SDS011;10759;51.982;9.232;2022-09-14T08:49:30;5.72;;;1.67;;
21202;SDS011;10759;51.982;9.232;2022-09-14T08:52:15;2.65;;;1.40;;
21202;SDS011;10759;51.982;9.232;2022-09-14T08:54:51;5.72;;;1.58;;
21202;SDS011;10759;51.982;9.232;2022-09-14T08:57:22;5.43;;;1.30;;
21202;SDS011;10759;51.982;9.232;2022-09-14T08:59:57;6.32;;;1.40;;
21202;SDS011;10759;51.982;9.232;2022-09-14T09:02:40;5.28;;;1.30;;
21202;SDS011;10759;51.982;9.232;2022-09-14T09:05:24;4.80;;;0.82;;
21202;SDS011;10759;51.982;9.232;2022-09-14T09:08:03;7.10;;;1.67;;
21202;SDS011;10759;51.982;9.232;2022-09-14T09:10:39;3.20;;;1.20;;
21202;SDS011;10759;51.982;9.232;2022-09-14T09:13:09;3.70;;;1.45;;
21202;SDS011;10759;51.982;9.232;2022-09-14T09:15:41;5.80;;;1.45;;
21202;SDS011;10759;51.982;9.232;2022-09-14T09:18:17;4.30;;;1.30;;
21202;SDS011;10759;51.982;9.232;2022-09-14T09:20:49;4.72;;;1.90;;
21202;SDS011;10759;51.982;9.232;2022-09-14T09:23:19;3.60;;;1.45;;
21202;SDS011;10759;51.982;9.232;2022-09-14T09:25:50;3.60;;;1.10;;
21202;SDS011;10759;51.982;9.232;2022-09-14T09:28:21;3.15;;;1.48;;
21202;SDS011;10759;51.982;9.232;2022-09-14T09:30:51;6.47;;;1.63;;
21202;SDS011;10759;51.982;9.232;2022-09-14T09:33:30;1.85;;;0.75;;
21202;SDS011;10759;51.982;9.232;2022-09-14T09:36:14;2.35;;;1.00;;
21202;SDS011;10759;51.982;9.232;2022-09-14T09:38:43;3.60;;;1.10;;
21202;SDS011;10759;51.982;9.232;2022-09-14T09:41:12;2.25;;;0.80;;
21202;SDS011;10759;51.982;9.232;2022-09-14T09:43:56;2.58;;;0.80;;
21202;SDS011;10759;51.982;9.232;2022-09-14T09:48:56;5.50;;;0.93;;
21202;SDS011;10759;51.982;9.232;2022-09-14T09:51:26;5.40;;;1.00;;
21202;SDS011;10759;51.982;9.232;2022-09-14T09:56:30;3.50;;;1.00;;
21202;SDS011;10759;51.982;9.232;2022-09-14T09:59:01;3.63;;;1.00;;
21202;SDS011;10759;51.982;9.232;2022-09-14T10:01:30;2.83;;;0.88;;
21202;SDS011;10759;51.982;9.232;2022-09-14T10:04:06;3.95;;;1.10;;
21202;SDS011;10759;51.982;9.232;2022-09-14T10:06:44;4.15;;;1.05;;
21202;SDS011;10759;51.982;9.232;2022-09-14T10:09:16;3.50;;;0.90;;
21202;SDS011;10759;51.982;9.232;2022-09-14T10:11:45;2.40;;;0.77;;
21202;SDS011;10759;51.982;9.232;2022-09-14T10:14:19;3.42;;;1.20;;
21202;SDS011;10759;51.982;9.232;2022-09-14T10:16:50;4.32;;;1.10;;
21202;SDS011;10759;51.982;9.232;2022-09-14T10:19:21;3.55;;;1.90;;
21202;SDS011;10759;51.982;9.232;2022-09-14T10:22:01;3.03;;;1.23;;
21202;SDS011;10759;51.982;9.232;2022-09-14T10:24:52;5.82;;;1.13;;
21202;SDS011;10759;51.982;9.232;2022-09-14T10:27:32;3.70;;;0.90;;
21202;SDS011;10759;51.982;9.232;2022-09-14T10:30:06;3.97;;;1.40;;
21202;SDS011;10759;51.982;9.232;2022-09-14T10:32:39;3.80;;;1.17;;
21202;SDS011;10759;51.982;9.232;2022-09-14T10:35:14;1.67;;;1.20;;
21202;SDS011;10759;51.982;9.232;2022-09-14T10:37:52;4.53;;;1.17;;
21202;SDS011;10759;51.982;9.232;2022-09-14T10:40:32;3.15;;;0.57;;
21202;SDS011;10759;51.982;9.232;2022-09-14T10:43:08;3.33;;;0.60;;
21202;SDS011;10759;51.982;9.232;2022-09-14T10:45:42;2.60;;;0.82;;
21202;SDS011;10759;51.982;9.232;2022-09-14T10:51:24;3.15;;;0.73;;
21202;SDS011;10759;51.982;9.232;2022-09-14T10:54:03;3.60;;;1.00;;
21202;SDS011;10759;51.982;9.232;2022-09-14T10:56:44;2.88;;;1.17;;
21202;SDS011;10759;51.982;9.232;2022-09-14T10:59:25;2.67;;;0.90;;
21202;SDS011;10759;51.982;9.232;2022-09-14T11:02:12;3.40;;;1.05;;
21202;SDS011;10759;51.982;9.232;2022-09-14T11:04:57;1.58;;;0.70;;
21202;SDS011;10759;51.982;9.232;2022-09-14T11:07:37;2.05;;;0.80;;
21202;SDS011;10759;51.982;9.232;2022-09-14T11:10:20;2.25;;;0.90;;
21202;SDS011;10759;51.982;9.232;2022-09-14T11:13:00;4.43;;;0.80;;
21202;SDS011;10759;51.982;9.232;2022-09-14T11:15:43;3.35;;;0.75;;
21202;SDS011;10759;51.982;9.232;2022-09-14T11:18:20;2.58;;;0.65;;
21202;SDS011;10759;51.982;9.232;2022-09-14T11:21:00;8.18;;;1.15;;
21202;SDS011;10759;51.982;9.232;2022-09-14T11:23:41;6.47;;;1.52;;
21202;SDS011;10759;51.982;9.232;2022-09-14T11:26:17;4.43;;;1.23;;
21202;SDS011;10759;51.982;9.232;2022-09-14T11:28:50;2.90;;;0.75;;
21202;SDS011;10759;51.982;9.232;2022-09-14T11:31:21;3.97;;;0.98;;
21202;SDS011;10759;51.982;9.232;2022-09-14T11:33:54;4.25;;;0.95;;
21202;SDS011;10759;51.982;9.232;2022-09-14T11:36:27;2.03;;;1.00;;
21202;SDS011;10759;51.982;9.232;2022-09-14T11:39:00;1.70;;;0.52;;
21202;SDS011;10759;51.982;9.232;2022-09-14T11:41:36;3.28;;;1.02;;
21202;SDS011;10759;51.982;9.232;2022-09-14T11:44:11;3.67;;;1.20;;
21202;SDS011;10759;51.982;9.232;2022-09-14T11:46:43;1.80;;;0.70;;
21202;SDS011;10759;51.982;9.232;2022-09-14T11:49:17;3.30;;;1.05;;
21202;SDS011;10759;51.982;9.232;2022-09-14T11:51:50;2.80;;;1.30;;
21202;SDS011;10759;51.982;9.232;2022-09-14T11:54:23;4.18;;;1.10;;
21202;SDS011;10759;51.982;9.232;2022-09-14T11:56:52;6.57;;;1.00;;
21202;SDS011;10759;51.982;9.232;2022-09-14T11:59:32;6.35;;;1.50;;
21202;SDS011;10759;51.982;9.232;2022-09-14T12:05:33;3.63;;;1.10;;
21202;SDS011;10759;51.982;9.232;2022-09-14T12:08:04;5.30;;;1.00;;
21202;SDS011;10759;51.982;9.232;2022-09-14T12:10:59;3.22;;;1.17;;
21202;SDS011;10759;51.982;9.232;2022-09-14T12:13:29;6.65;;;1.23;;
21202;SDS011;10759;51.982;9.232;2022-09-14T12:16:02;3.67;;;1.00;;
21202;SDS011;10759;51.982;9.232;2022-09-14T12:18:31;4.40;;;1.48;;
21202;SDS011;10759;51.982;9.232;2022-09-14T12:21:04;3.00;;;1.48;;
21202;SDS011;10759;51.982;9.232;2022-09-14T12:23:41;2.33;;;1.00;;
21202;SDS011;10759;51.982;9.232;2022-09-14T12:26:16;4.93;;;1.35;;
21202;SDS011;10759;51.982;9.232;2022-09-14T12:28:55;2.13;;;1.00;;
21202;SDS011;10759;51.982;9.232;2022-09-14T12:31:28;4.10;;;1.38;;
21202;SDS011;10759;51.982;9.232;2022-09-14T12:34:20;5.07;;;1.52;;
21202;SDS011;10759;51.982;9.232;2022-09-14T12:51:51;5.18;;;1.30;;
21202;SDS011;10759;51.982;9.232;2022-09-14T12:54:23;4.80;;;1.05;;
21202;SDS011;10759;51.982;9.232;2022-09-14T12:57:09;3.80;;;0.95;;
21202;SDS011;10759;51.982;9.232;2022-09-14T12:59:52;4.28;;;1.27;;
21202;SDS011;10759;51.982;9.232;2022-09-14T13:05:31;3.90;;;1.17;;
21202;SDS011;10759;51.982;9.232;2022-09-14T13:08:06;4.03;;;1.75;;
21202;SDS011;10759;51.982;9.232;2022-09-14T13:10:38;2.65;;;1.02;;
21202;SDS011;10759;51.982;9.232;2022-09-14T13:13:13;2.33;;;1.10;;
21202;SDS011;10759;51.982;9.232;2022-09-14T13:15:47;3.13;;;1.38;;
21202;SDS011;10759;51.982;9.232;2022-09-14T13:18:25;4.65;;;1.20;;
21202;SDS011;10759;51.982;9.232;2022-09-14T13:20:57;3.53;;;1.10;;
21202;SDS011;10759;51.982;9.232;2022-09-14T13:23:28;3.72;;;1.52;;
21202;SDS011;10759;51.982;9.232;2022-09-14T13:25:59;4.90;;;1.50;;
21202;SDS011;10759;51.982;9.232;2022-09-14T13:28:36;4.65;;;1.30;;
21202;SDS011;10759;51.982;9.232;2022-09-14T13:31:04;2.88;;;1.10;;
21202;SDS011;10759;51.982;9.232;2022-09-14T13:33:32;2.95;;;1.15;;
21202;SDS011;10759;51.982;9.232;2022-09-14T13:36:02;5.28;;;2.75;;
21202;SDS011;10759;51.982;9.232;2022-09-14T13:38:32;5.00;;;1.20;;
21202;SDS011;10759;51.982;9.232;2022-09-14T13:41:03;4.63;;;1.65;;
21202;SDS011;10759;51.982;9.232;2022-09-14T13:43:34;2.72;;;1.20;;
21202;SDS011;10759;51.982;9.232;2022-09-14T13:46:03;5.47;;;1.70;;
21202;SDS011;10759;51.982;9.232;2022-09-14T13:48:35;4.10;;;1.58;;
21202;SDS011;10759;51.982;9.232;2022-09-14T13:51:07;2.65;;;1.23;;
21202;SDS011;10759;51.982;9.232;2022-09-14T13:53:40;4.30;;;1.35;;
21202;SDS011;10759;51.982;9.232;2022-09-14T13:56:15;3.83;;;1.02;;
21202;SDS011;10759;51.982;9.232;2022-09-14T13:58:44;2.80;;;0.80;;
21202;SDS011;10759;51.982;9.232;2022-09-14T14:01:21;2.13;;;0.80;;
21202;SDS011;10759;51.982;9.232;2022-09-14T14:03:51;2.83;;;0.95;;
21202;SDS011;10759;51.982;9.232;2022-09-14T14:06:22;3.30;;;0.82;;
21202;SDS011;10759;51.982;9.232;2022-09-14T14:08:57;2.28;;;0.73;;
21202;SDS011;10759;51.982;9.232;2022-09-14T14:11:29;3.33;;;0.95;;
21202;SDS011;10759;51.982;9.232;2022-09-14T14:14:09;3.47;;;1.05;;
21202;SDS011;10759;51.982;9.232;2022-09-14T14:16:39;2.63;;;1.27;;
21202;SDS011;10759;51.982;9.232;2022-09-14T14:24:45;2.40;;;0.68;;
21202;SDS011;10759;51.982;9.232;2022-09-14T14:27:42;1.38;;;0.70;;
21202;SDS011;10759;51.982;9.232;2022-09-14T14:30:12;1.63;;;0.75;;
21202;SDS011;10759;51.982;9.232;2022-09-14T14:32:42;1.55;;;0.77;;
21202;SDS011;10759;51.982;9.232;2022-09-14T14:35:17;3.13;;;0.70;;
21202;SDS011;10759;51.982;9.232;2022-09-14T14:37:49;2.28;;;0.82;;
21202;SDS011;10759;51.982;9.232;2022-09-14T14:40:18;3.45;;;1.08;;
21202;SDS011;10759;51.982;9.232;2022-09-14T14:42:47;3.42;;;1.10;;
21202;SDS011;10759;51.982;9.232;2022-09-14T14:45:17;2.47;;;1.00;;
21202;SDS011;10759;51.982;9.232;2022-09-14T14:47:48;1.80;;;1.23;;
21202;SDS011;10759;51.982;9.232;2022-09-14T14:50:17;2.65;;;1.20;;
21202;SDS011;10759;51.982;9.232;2022-09-14T14:52:49;2.50;;;1.45;;
21202;SDS011;10759;51.982;9.232;2022-09-14T14:55:17;4.47;;;1.45;;
21202;SDS011;10759;51.982;9.232;2022-09-14T14:57:46;4.13;;;2.70;;
21202;SDS011;10759;51.982;9.232;2022-09-14T15:00:15;3.78;;;2.10;;
21202;SDS011;10759;51.982;9.232;2022-09-14T15:02:45;5.65;;;4.18;;
21202;SDS011;10759;51.982;9.232;2022-09-14T15:05:13;2.03;;;1.00;;
21202;SDS011;10759;51.982;9.232;2022-09-14T15:07:42;2.05;;;1.10;;
21202;SDS011;10759;51.982;9.232;2022-09-14T15:10:13;2.45;;;0.80;;
21202;SDS011;10759;51.982;9.232;2022-09-14T15:12:42;2.08;;;0.90;;
21202;SDS011;10759;51.982;9.232;2022-09-14T15:15:11;1.45;;;0.90;;
21202;SDS011;10759;51.982;9.232;2022-09-14T15:17:39;4.03;;;1.13;;
21202;SDS011;10759;51.982;9.232;2022-09-14T15:20:08;2.83;;;1.05;;
21202;SDS011;10759;51.982;9.232;2022-09-14T15:22:37;1.88;;;0.90;;
21202;SDS011;10759;51.982;9.232;2022-09-14T15:25:08;3.15;;;1.10;;
21202;SDS011;10759;51.982;9.232;2022-09-14T15:27:38;2.15;;;1.02;;
21202;SDS011;10759;51.982;9.232;2022-09-14T15:30:07;2.13;;;1.20;;
21202;SDS011;10759;51.982;9.232;2022-09-14T15:32:37;2.65;;;1.00;;
21202;SDS011;10759;51.982;9.232;2022-09-14T15:35:06;2.90;;;0.93;;
21202;SDS011;10759;51.982;9.232;2022-09-14T15:37:36;2.70;;;1.02;;
21202;SDS011;10759;51.982;9.232;2022-09-14T15:40:05;6.03;;;1.10;;
21202;SDS011;10759;51.982;9.232;2022-09-14T15:42:34;3.38;;;1.23;;
21202;SDS011;10759;51.982;9.232;2022-09-14T15:45:04;4.30;;;1.30;;
21202;SDS011;10759;51.982;9.232;2022-09-14T15:47:33;2.15;;;1.05;;
21202;SDS011;10759;51.982;9.232;2022-09-14T15:50:02;3.38;;;1.38;;
21202;SDS011;10759;51.982;9.232;2022-09-14T15:52:33;4.25;;;1.20;;
21202;SDS011;10759;51.982;9.232;2022-09-14T15:55:01;1.88;;;0.95;;
21202;SDS011;10759;51.982;9.232;2022-09-14T15:57:29;2.30;;;1.40;;
21202;SDS011;10759;51.982;9.232;2022-09-14T15:59:57;3.35;;;1.40;;
21202;SDS011;10759;51.982;9.232;2022-09-14T16:02:27;3.33;;;1.55;;
21202;SDS011;10759;51.982;9.232;2022-09-14T16:04:55;1.52;;;1.20;;
21202;SDS011;10759;51.982;9.232;2022-09-14T16:07:23;7.13;;;1.30;;
21202;SDS011;10759;51.982;9.232;2022-09-14T16:09:51;2.75;;;0.90;;
21202;SDS011;10759;51.982;9.232;2022-09-14T16:12:24;2.70;;;1.35;;
21202;SDS011;10759;51.982;9.232;2022-09-14T16:14:52;4.50;;;1.10;;
21202;SDS011;10759;51.982;9.232;2022-09-14T16:17:20;3.28;;;1.40;;
21202;SDS011;10759;51.982;9.232;2022-09-14T16:19:50;2.97;;;1.20;;
21202;SDS011;10759;51.982;9.232;2022-09-14T16:22:18;2.92;;;1.25;;
21202;SDS011;10759;51.982;9.232;2022-09-14T16:24:47;3.17;;;1.25;;
21202;SDS011;10759;51.982;9.232;2022-09-14T16:27:15;3.25;;;1.52;;
21202;SDS011;10759;51.982;9.232;2022-09-14T16:29:43;2.47;;;1.30;;
21202;SDS011;10759;51.982;9.232;2022-09-14T16:32:11;3.42;;;1.20;;
21202;SDS011;10759;51.982;9.232;2022-09-14T16:34:39;4.03;;;1.48;;
21202;SDS011;10759;51.982;9.232;2022-09-14T16:37:09;3.17;;;1.20;;
21202;SDS011;10759;51.982;9.232;2022-09-14T16:39:37;1.92;;;1.30;;
21202;SDS011;10759;51.982;9.232;2022-09-14T16:42:05;2.65;;;1.23;;
21202;SDS011;10759;51.982;9.232;2022-09-14T16:44:33;2.30;;;1.10;;
21202;SDS011;10759;51.982;9.232;2022-09-14T16:47:01;2.47;;;2.10;;
21202;SDS011;10759;51.982;9.232;2022-09-14T16:49:29;2.38;;;1.27;;
21202;SDS011;10759;51.982;9.232;2022-09-14T16:51:57;4.18;;;1.70;;
21202;SDS011;10759;51.982;9.232;2022-09-14T16:54:27;3.65;;;1.65;;
21202;SDS011;10759;51.982;9.232;2022-09-14T16:56:57;4.00;;;1.75;;
21202;SDS011;10759;51.982;9.232;2022-09-14T16:59:26;3.17;;;1.43;;
21202;SDS011;10759;51.982;9.232;2022-09-14T17:01:54;2.42;;;1.70;;
21202;SDS011;10759;51.982;9.232;2022-09-14T17:04:22;3.65;;;1.75;;
21202;SDS011;10759;51.982;9.232;2022-09-14T17:06:51;3.58;;;1.90;;
21202;SDS011;10759;51.982;9.232;2022-09-14T17:09:21;3.17;;;1.67;;
21202;SDS011;10759;51.982;9.232;2022-09-14T17:11:52;1.83;;;1.40;;
21202;SDS011;10759;51.982;9.232;2022-09-14T17:14:23;3.25;;;1.63;;
21202;SDS011;10759;51.982;9.232;2022-09-14T17:16:54;3.33;;;1.75;;
21202;SDS011;10759;51.982;9.232;2022-09-14T17:19:23;4.22;;;1.90;;
21202;SDS011;10759;51.982;9.232;2022-09-14T17:21:52;2.20;;;1.50;;
21202;SDS011;10759;51.982;9.232;2022-09-14T17:24:20;3.15;;;2.00;;
21202;SDS011;10759;51.982;9.232;2022-09-14T17:26:49;11.43;;;1.70;;
21202;SDS011;10759;51.982;9.232;2022-09-14T17:29:19;2.03;;;1.50;;
21202;SDS011;10759;51.982;9.232;2022-09-14T17:31:47;2.47;;;1.27;;
21202;SDS011;10759;51.982;9.232;2022-09-14T17:34:16;3.70;;;1.60;;
21202;SDS011;10759;51.982;9.232;2022-09-14T17:36:44;4.65;;;2.15;;
21202;SDS011;10759;51.982;9.232;2022-09-14T17:39:13;4.03;;;1.85;;
21202;SDS011;10759;51.982;9.232;2022-09-14T17:41:42;5.72;;;3.67;;
21202;SDS011;10759;51.982;9.232;2022-09-14T17:44:10;2.30;;;1.38;;
21202;SDS011;10759;51.982;9.232;2022-09-14T17:46:41;3.03;;;1.58;;
21202;SDS011;10759;51.982;9.232;2022-09-14T17:49:18;2.63;;;1.17;;
21202;SDS011;10759;51.982;9.232;2022-09-14T17:51:47;2.55;;;1.65;;
21202;SDS011;10759;51.982;9.232;2022-09-14T17:54:16;5.72;;;1.60;;
21202;SDS011;10759;51.982;9.232;2022-09-14T17:56:44;3.10;;;1.50;;
21202;SDS011;10759;51.982;9.232;2022-09-14T17:59:13;2.92;;;1.60;;
21202;SDS011;10759;51.982;9.232;2022-09-14T18:01:47;3.33;;;1.83;;
21202;SDS011;10759;51.982;9.232;2022-09-14T18:04:16;1.45;;;1.13;;
21202;SDS011;10759;51.982;9.232;2022-09-14T18:06:45;2.47;;;2.03;;
21202;SDS011;10759;51.982;9.232;2022-09-14T18:09:16;3.15;;;1.95;;
21202;SDS011;10759;51.982;9.232;2022-09-14T18:11:46;5.45;;;3.10;;
21202;SDS011;10759;51.982;9.232;2022-09-14T18:14:16;5.07;;;1.63;;
21202;SDS011;10759;51.982;9.232;2022-09-14T18:16:45;3.80;;;2.45;;
21202;SDS011;10759;51.982;9.232;2022-09-14T18:19:14;2.50;;;2.10;;
21202;SDS011;10759;51.982;9.232;2022-09-14T18:21:43;4.13;;;2.33;;
21202;SDS011;10759;51.982;9.232;2022-09-14T18:24:18;4.35;;;2.47;;
21202;SDS011;10759;51.982;9.232;2022-09-14T18:26:46;4.72;;;2.30;;
21202;SDS011;10759;51.982;9.232;2022-09-14T18:29:16;3.30;;;2.20;;
21202;SDS011;10759;51.982;9.232;2022-09-14T18:31:48;4.55;;;2.28;;
21202;SDS011;10759;51.982;9.232;2022-09-14T18:34:16;4.20;;;2.03;;
21202;SDS011;10759;51.982;9.232;2022-09-14T18:36:45;4.07;;;3.13;;
21202;SDS011;10759;51.982;9.232;2022-09-14T18:39:13;4.80;;;3.42;;
21202;SDS011;10759;51.982;9.232;2022-09-14T18:41:41;5.50;;;3.20;;
21202;SDS011;10759;51.982;9.232;2022-09-14T18:44:09;3.47;;;2.60;;
21202;SDS011;10759;51.982;9.232;2022-09-14T18:46:37;2.83;;;2.63;;
21202;SDS011;10759;51.982;9.232;2022-09-14T18:49:07;4.22;;;2.85;;
21202;SDS011;10759;51.982;9.232;2022-09-14T18:51:35;3.33;;;2.55;;
21202;SDS011;10759;51.982;9.232;2022-09-14T18:54:04;3.10;;;2.65;;
21202;SDS011;10759;51.982;9.232;2022-09-14T18:56:33;3.50;;;2.58;;
21202;SDS011;10759;51.982;9.232;2022-09-14T18:59:04;4.97;;;2.90;;
21202;SDS011;10759;51.982;9.232;2022-09-14T19:01:34;3.65;;;3.08;;
21202;SDS011;10759;51.982;9.232;2022-09-14T19:04:04;3.85;;;2.85;;
21202;SDS011;10759;51.982;9.232;2022-09-14T19:06:35;5.55;;;3.00;;
21202;SDS011;10759;51.982;9.232;2022-09-14T19:09:05;6.78;;;3.38;;
21202;SDS011;10759;51.982;9.232;2022-09-14T19:11:34;3.57;;;2.47;;
21202;SDS011;10759;51.982;9.232;2022-09-14T19:14:02;5.70;;;2.90;;
21202;SDS011;10759;51.982;9.232;2022-09-14T19:16:35;3.78;;;3.03;;
21202;SDS011;10759;51.982;9.232;2022-09-14T19:19:05;2.75;;;2.47;;
21202;SDS011;10759;51.982;9.232;2022-09-14T19:21:35;2.97;;;2.78;;
21202;SDS011;10759;51.982;9.232;2022-09-14T19:24:04;3.92;;;3.15;;
21202;SDS011;10759;51.982;9.232;2022-09-14T19:29:10;4.28;;;2.88;;
21202;SDS011;10759;51.982;9.232;2022-09-14T19:31:39;3.15;;;2.72;;
21202;SDS011;10759;51.982;9.232;2022-09-14T19:34:08;3.67;;;3.13;;
21202;SDS011;10759;51.982;9.232;2022-09-14T19:36:38;4.50;;;2.92;;
21202;SDS011;10759;51.982;9.232;2022-09-14T19:39:07;4.10;;;3.70;;
21202;SDS011;10759;51.982;9.232;2022-09-14T19:41:35;3.70;;;3.40;;
21202;SDS011;10759;51.982;9.232;2022-09-14T19:44:06;4.97;;;4.53;;
21202;SDS011;10759;51.982;9.232;2022-09-14T19:46:35;7.10;;;4.95;;
21202;SDS011;10759;51.982;9.232;2022-09-14T19:49:05;7.00;;;4.32;;
21202;SDS011;10759;51.982;9.232;2022-09-14T19:51:34;5.25;;;4.68;;
21202;SDS011;10759;51.982;9.232;2022-09-14T19:54:03;5.28;;;4.32;;
21202;SDS011;10759;51.982;9.232;2022-09-14T19:56:31;5.03;;;4.53;;
21202;SDS011;10759;51.982;9.232;2022-09-14T19:59:00;7.35;;;4.95;;
21202;SDS011;10759;51.982;9.232;2022-09-14T20:01:30;6.15;;;4.85;;
21202;SDS011;10759;51.982;9.232;2022-09-14T20:03:59;6.33;;;4.83;;
21202;SDS011;10759;51.982;9.232;2022-09-14T20:06:28;4.70;;;4.28;;
21202;SDS011;10759;51.982;9.232;2022-09-14T20:08:57;5.38;;;4.45;;
21202;SDS011;10759;51.982;9.232;2022-09-14T20:11:28;8.27;;;5.63;;
21202;SDS011;10759;51.982;9.232;2022-09-14T20:13:59;5.90;;;5.05;;
21202;SDS011;10759;51.982;9.232;2022-09-14T20:16:29;5.03;;;4.63;;
21202;SDS011;10759;51.982;9.232;2022-09-14T20:19:01;6.05;;;5.05;;
21202;SDS011;10759;51.982;9.232;2022-09-14T20:21:31;5.03;;;4.60;;
21202;SDS011;10759;51.982;9.232;2022-09-14T20:24:01;6.47;;;4.10;;
21202;SDS011;10759;51.982;9.232;2022-09-14T20:26:49;6.28;;;4.38;;
21202;SDS011;10759;51.982;9.232;2022-09-14T20:31:46;5.18;;;4.78;;
21202;SDS011;10759;51.982;9.232;2022-09-14T20:34:15;6.10;;;4.68;;
21202;SDS011;10759;51.982;9.232;2022-09-14T20:36:47;5.50;;;5.00;;
21202;SDS011;10759;51.982;9.232;2022-09-14T20:39:16;4.85;;;4.40;;
21202;SDS011;10759;51.982;9.232;2022-09-14T20:41:44;5.53;;;4.63;;
21202;SDS011;10759;51.982;9.232;2022-09-14T20:44:14;5.80;;;5.30;;
21202;SDS011;10759;51.982;9.232;2022-09-14T20:46:47;6.38;;;5.47;;
21202;SDS011;10759;51.982;9.232;2022-09-14T20:49:16;9.45;;;5.50;;
21202;SDS011;10759;51.982;9.232;2022-09-14T20:51:46;6.65;;;5.30;;
21202;SDS011;10759;51.982;9.232;2022-09-14T20:54:15;6.82;;;6.13;;
21202;SDS011;10759;51.982;9.232;2022-09-14T20:56:44;8.18;;;6.03;;
21202;SDS011;10759;51.982;9.232;2022-09-14T20:59:15;6.78;;;6.13;;
21202;SDS011;10759;51.982;9.232;2022-09-14T21:01:45;7.32;;;6.63;;
21202;SDS011;10759;51.982;9.232;2022-09-14T21:04:16;9.88;;;6.30;;
21202;SDS011;10759;51.982;9.232;2022-09-14T21:06:46;6.45;;;5.88;;
21202;SDS011;10759;51.982;9.232;2022-09-14T21:09:15;9.55;;;6.85;;
21202;SDS011;10759;51.982;9.232;2022-09-14T21:11:44;7.38;;;6.40;;
21202;SDS011;10759;51.982;9.232;2022-09-14T21:14:15;9.60;;;6.43;;
21202;SDS011;10759;51.982;9.232;2022-09-14T21:16:45;6.57;;;5.85;;
21202;SDS011;10759;51.982;9.232;2022-09-14T21:19:16;8.65;;;5.95;;
21202;SDS011;10759;51.982;9.232;2022-09-14T21:24:15;8.93;;;8.02;;
21202;SDS011;10759;51.982;9.232;2022-09-14T21:26:44;8.20;;;7.40;;
21202;SDS011;10759;51.982;9.232;2022-09-14T21:29:15;12.25;;;7.53;;